Pagrindinis puslapis
METAR-TAF:

METAR-TAF

Oro uostai :

Larnaka, Kipras

platuma: 34-53N, ilguma: 033-38E, Aukštis: 2 m

Dabartinis oras

Ataskaita buvo paskelbta 31 minutes, ne 23:30 UTC
Vėjas 5 kt iš Vakarų/Šiaurės Vakarų
Temperatūra 14°C
Drėgmė 82%
Slėgis 1014 hPa
Matomumas 10 km arba daugiau
Mažai debesys ne aukštis 4500 ft

METAR: LCLK 072330Z 30005KT 9999 FEW045 14/11 Q1014 NOSIG

Laikas: 03:01 (00:01 UTC)

Prognozė

Ataskaita buvo paskelbta 31 minutes, ne 23:30 UTC
Prognozė galioja nuo 08 metu 00 UTC su 08 metu 24 UTC
Vėjas 7 kt iš Šiaurės Vakarų
Matomumas 10 km arba daugiau
Išsisklaidę debesys ne aukštis 4000 ft
Tapsmas
nuo 08 metu 09 UTC su 08 metu 13 UTC
Vėjas 13 kt iš Pietų/Pietvakarių
Tikimybė 30% :
Laikinai
nuo 08 metu 09 UTC su 08 metu 16 UTC
Matomumas: 5000 m
Mažai debesys ne aukštis 2000 ft, Liūtiniai kamuoliniai debesys.
lietus
Tapsmas
nuo 08 metu 15 UTC su 08 metu 19 UTC
Vėjas 6 kt iš Šiaurės Vakarų

TAF: LCLK 072330Z 0800/0824 31007KT 9999 SCT040 BECMG 0809/0813 21013KT PROB30 TEMPO 0809/0816 5000 SHRA FEW020CB BECMG 0815/0819 32006KT

Orai ataskaitas ir orų prognozės (METAR, TAF).

turimą stotys yra geltonos ir raudonos taškus žemėlapyje.

Perkelti pele per norėdami pamatyti stoties vardą.

Tada spustelėkite, norėdami matyti oro stebėjimo ir prognozės.

Norėdami pakeisti žemėlapį: spustelėkite ant žalios mygtukų su juodo kryžiaus žemyn,; žalią mygtuką su brūkšneliu, jei norite nutolinti; arba žalių rodyklių gretimoms žemėlapius.


METAR-TAF: